Terminal Aerodrome Forecast
Issued by NWS

Home | Current Version | Previous Version | Text Only | Print | Product List | Glossary On
Versions: 1 2 3 4 5 6 7 8 9 10 11 12 13 14 15 16 17
950
FTUS43 KGRB 301729
TAFCWA
TAF
KCWA 301729Z 3018/3118 07007KT P6SM SCT040
     FM310300 VRB03KT P6SM FEW050 SCT100
     FM310900 00000KT 4SM BR SKC
     FM311200 12006KT 6SM BR SCT050=

USA.gov is the U.S. government's official web portal to all federal, state and local government web resources and services.